Time;durP1;ratioP1;P1;durP2;ratioP2;P2;SDS_P1;SDS_P2;PMS_P1;PMS_P2;Temp;Humidity;BMP_temperature;BMP_pressure;BME280_temperature;BME280_humidity;BME280_pressure;Samples;Min_cycle;Max_cycle;Signal;HPM_P1;HPM_P2
2023/04/05 00:00:10;;;;;;;8.55;5.10;;;1.30;99.90;;;;;;5049612;28;20029;-50
2023/04/05 00:02:39;;;;;;;6.68;4.00;;;1.20;99.90;;;;;;5049214;28;20122;-47
2023/04/05 00:05:05;;;;;;;7.90;3.85;;;1.30;99.90;;;;;;5049360;28;20317;-47
2023/04/05 00:07:33;;;;;;;5.13;2.95;;;1.20;99.90;;;;;;5048317;28;20087;-47
2023/04/05 00:09:59;;;;;;;7.28;3.40;;;1.20;99.90;;;;;;5048225;28;20021;-47
2023/04/05 00:12:24;;;;;;;5.55;2.30;;;1.20;99.90;;;;;;5049340;28;20028;-47
2023/04/05 00:14:50;;;;;;;6.75;3.10;;;1.10;99.90;;;;;;5049299;28;20025;-48
2023/04/05 00:17:16;;;;;;;6.80;2.38;;;1.00;99.90;;;;;;5048815;28;20025;-47
2023/04/05 00:19:43;;;;;;;7.45;3.30;;;1.00;99.90;;;;;;5048801;28;20017;-47
2023/04/05 00:22:09;;;;;;;5.45;2.33;;;1.00;99.90;;;;;;5048305;28;20028;-46
2023/04/05 00:24:40;;;;;;;5.25;2.60;;;0.90;99.90;;;;;;5049530;28;20398;-47
2023/04/05 00:27:06;;;;;;;7.47;2.70;;;0.90;99.90;;;;;;5048977;28;20079;-47
2023/04/05 00:29:31;;;;;;;6.93;3.33;;;0.90;99.90;;;;;;5048893;28;20025;-46
2023/04/05 00:31:57;;;;;;;6.43;3.00;;;0.90;99.90;;;;;;5048788;28;20032;-47
2023/04/05 00:34:23;;;;;;;10.10;3.58;;;0.80;99.90;;;;;;5048906;28;20021;-47
2023/04/05 00:36:48;;;;;;;5.40;3.22;;;0.90;99.90;;;;;;5048795;28;20060;-47
2023/04/05 00:39:14;;;;;;;7.90;3.28;;;0.90;99.90;;;;;;5048522;28;20478;-46
2023/04/05 00:41:39;;;;;;;6.18;3.10;;;0.80;99.90;;;;;;5048705;28;20385;-47
2023/04/05 00:44:06;;;;;;;5.20;3.00;;;0.80;99.90;;;;;;5048852;28;20367;-47
2023/04/05 00:46:36;;;;;;;6.95;3.55;;;0.80;99.90;;;;;;5048552;28;20040;-48
2023/04/05 00:49:03;;;;;;;6.03;3.20;;;0.70;99.90;;;;;;5048553;28;20023;-47
2023/04/05 00:51:32;;;;;;;7.88;3.53;;;0.60;99.90;;;;;;5048738;28;20024;-47
2023/04/05 00:53:59;;;;;;;6.90;3.80;;;0.60;99.90;;;;;;5048663;28;20066;-46
2023/04/05 00:56:25;;;;;;;6.38;3.05;;;0.60;99.90;;;;;;5047152;28;20048;-46
2023/04/05 00:58:51;;;;;;;12.02;4.93;;;0.60;99.90;;;;;;5048645;28;20024;-49
2023/04/05 01:01:19;;;;;;;6.07;3.38;;;0.60;99.90;;;;;;5048526;28;20478;-47
2023/04/05 01:03:52;;;;;;;7.45;4.15;;;0.70;99.90;;;;;;5048247;28;20028;-47
2023/04/05 01:06:50;;;;;;;8.25;3.78;;;0.70;99.90;;;;;;5048036;28;20025;-46
2023/04/05 01:09:44;;;;;;;10.52;5.57;;;0.70;99.90;;;;;;5048085;28;20032;-47
2023/04/05 01:12:14;;;;;;;9.07;4.40;;;0.70;99.90;;;;;;5048746;28;20040;-46
2023/04/05 01:14:50;;;;;;;6.32;3.13;;;0.80;99.90;;;;;;5048246;28;20028;-46
2023/04/05 01:17:20;;;;;;;7.60;4.05;;;0.90;99.90;;;;;;5047933;28;20511;-47
2023/04/05 01:19:53;;;;;;;6.68;3.70;;;0.90;99.90;;;;;;5046368;28;20486;-47
2023/04/05 01:22:27;;;;;;;9.75;4.95;;;1.00;99.90;;;;;;5048225;28;20120;-47
2023/04/05 01:25:18;;;;;;;8.13;3.85;;;0.90;99.90;;;;;;5048864;28;20041;-46
2023/04/05 01:27:52;;;;;;;8.48;4.15;;;0.90;99.90;;;;;;5041527;28;20025;-47
2023/04/05 01:30:22;;;;;;;6.35;3.78;;;0.90;99.90;;;;;;5048279;28;20025;-46
2023/04/05 01:33:10;;;;;;;6.72;4.30;;;0.90;99.90;;;;;;5048175;28;20123;-47
2023/04/05 01:35:38;;;;;;;10.05;4.57;;;0.90;99.90;;;;;;5043662;28;20032;-47
2023/04/05 01:38:09;;;;;;;8.30;4.82;;;1.00;99.90;;;;;;5048050;28;20395;-46
2023/04/05 01:40:35;;;;;;;9.65;4.30;;;1.00;99.90;;;;;;5048210;28;20020;-47
2023/04/05 01:43:04;;;;;;;7.95;3.92;;;1.00;99.90;;;;;;5048115;28;20064;-46
2023/04/05 01:45:30;;;;;;;9.65;5.25;;;1.10;99.90;;;;;;5046559;28;20028;-46
2023/04/05 01:47:56;;;;;;;12.57;4.90;;;1.10;99.90;;;;;;5047274;28;20301;-46
2023/04/05 01:50:21;;;;;;;11.13;4.60;;;1.10;99.90;;;;;;5048248;28;20116;-47
2023/04/05 01:52:47;;;;;;;9.75;4.70;;;1.20;99.90;;;;;;5048922;28;20017;-47
2023/04/05 01:55:12;;;;;;;11.50;4.95;;;1.20;99.90;;;;;;5048081;28;20368;-47
2023/04/05 01:57:38;;;;;;;8.93;4.35;;;1.30;99.90;;;;;;5047355;28;20032;-47
2023/04/05 02:00:04;;;;;;;16.15;6.53;;;1.20;99.90;;;;;;5048002;28;20029;-46
2023/04/05 02:02:30;;;;;;;10.95;4.70;;;1.20;99.90;;;;;;5047570;28;20021;-46
2023/04/05 02:04:55;;;;;;;10.02;4.72;;;1.30;99.90;;;;;;5046623;28;20391;-48
2023/04/05 02:07:21;;;;;;;8.93;5.15;;;1.30;99.90;;;;;;5047511;28;20029;-46
2023/04/05 02:09:46;;;;;;;10.93;5.38;;;1.30;99.90;;;;;;5047865;28;20523;-47
2023/04/05 02:12:12;;;;;;;12.00;4.43;;;1.30;99.90;;;;;;5047865;28;20067;-46
2023/04/05 02:14:37;;;;;;;6.45;4.53;;;1.30;99.90;;;;;;5048004;28;20508;-47
2023/04/05 02:17:03;;;;;;;10.98;5.72;;;1.30;99.90;;;;;;5047711;28;20359;-46
2023/04/05 02:19:36;;;;;;;12.82;4.65;;;1.40;99.90;;;;;;5047381;28;20056;-46
2023/04/05 02:22:01;;;;;;;9.07;4.28;;;1.30;99.90;;;;;;5047871;28;20121;-47
2023/04/05 02:24:27;;;;;;;7.70;4.45;;;1.30;99.90;;;;;;5047683;28;20104;-48
2023/04/05 02:26:52;;;;;;;9.00;4.90;;;1.30;99.90;;;;;;5047521;28;20029;-47
2023/04/05 02:29:18;;;;;;;6.45;4.10;;;1.30;99.90;;;;;;5047334;28;20021;-46
2023/04/05 02:31:43;;;;;;;5.88;4.10;;;1.30;99.90;;;;;;5050735;28;20465;-47
2023/04/05 02:34:10;;;;;;;9.85;4.47;;;1.30;99.90;;;;;;5051263;28;20101;-46
2023/04/05 02:36:36;;;;;;;10.10;4.72;;;1.30;99.90;;;;;;5051128;28;20045;-48
2023/04/05 02:39:01;;;;;;;8.95;4.43;;;1.30;99.90;;;;;;5051073;28;20434;-46
2023/04/05 02:41:27;;;;;;;8.45;4.55;;;1.30;99.90;;;;;;5050614;28;20363;-46
2023/04/05 02:43:52;;;;;;;7.72;4.93;;;1.20;99.90;;;;;;5050980;28;20035;-46
2023/04/05 02:46:18;;;;;;;9.80;5.20;;;1.20;99.90;;;;;;5050530;28;20029;-45
2023/04/05 02:48:45;;;;;;;9.25;4.35;;;1.10;99.90;;;;;;5049419;28;20383;-46
2023/04/05 02:51:11;;;;;;;9.40;5.57;;;1.00;99.90;;;;;;5051126;28;20056;-47
2023/04/05 02:53:36;;;;;;;12.75;5.30;;;1.00;99.90;;;;;;5051269;28;20032;-46
2023/04/05 02:56:02;;;;;;;10.75;6.15;;;1.00;99.90;;;;;;5050920;28;20021;-46
2023/04/05 02:58:27;;;;;;;10.52;5.13;;;1.00;99.90;;;;;;5050872;28;20309;-46
2023/04/05 03:00:54;;;;;;;14.30;5.80;;;1.00;99.90;;;;;;5050004;28;20067;-49
2023/04/05 03:03:21;;;;;;;8.70;4.78;;;1.00;99.90;;;;;;5050727;28;20475;-46
2023/04/05 03:05:47;;;;;;;10.23;5.90;;;1.00;99.90;;;;;;5050923;28;20406;-46
2023/04/05 03:08:18;;;;;;;10.70;5.13;;;1.10;99.90;;;;;;5050724;28;20059;-47
2023/04/05 03:10:47;;;;;;;9.23;4.63;;;1.00;99.90;;;;;;5050751;28;20024;-46
2023/04/05 03:13:13;;;;;;;13.20;5.40;;;1.00;99.90;;;;;;5049366;28;20483;-49
2023/04/05 03:15:40;;;;;;;8.35;4.28;;;0.90;99.90;;;;;;5051159;28;20025;-47
2023/04/05 03:18:05;;;;;;;9.52;4.53;;;0.90;99.90;;;;;;5049058;28;20127;-47
2023/04/05 03:20:39;;;;;;;12.23;6.28;;;0.90;99.90;;;;;;5050407;28;20529;-47
2023/04/05 03:23:07;;;;;;;11.05;5.50;;;1.00;99.90;;;;;;5050421;28;20032;-47
2023/04/05 03:25:35;;;;;;;9.70;5.70;;;1.00;99.90;;;;;;5050160;28;20048;-46
2023/04/05 03:28:04;;;;;;;9.95;4.97;;;1.00;99.90;;;;;;5049893;28;20025;-46
2023/04/05 03:30:33;;;;;;;9.65;4.40;;;1.00;99.90;;;;;;5050202;28;20059;-46
2023/04/05 03:33:00;;;;;;;8.50;4.53;;;1.00;99.90;;;;;;5049926;28;20036;-47
2023/04/05 03:35:27;;;;;;;10.60;4.63;;;1.00;99.90;;;;;;5050544;28;20013;-47
2023/04/05 03:37:53;;;;;;;9.48;4.97;;;0.90;99.90;;;;;;5049627;28;20104;-46
2023/04/05 03:40:19;;;;;;;9.43;4.80;;;1.00;99.90;;;;;;5049811;28;20029;-47
2023/04/05 03:42:45;;;;;;;9.95;4.80;;;0.90;99.90;;;;;;5041137;28;20017;-47
2023/04/05 03:45:10;;;;;;;11.65;5.53;;;0.90;99.90;;;;;;5050110;28;20025;-45
2023/04/05 03:47:36;;;;;;;10.15;5.03;;;0.90;99.90;;;;;;5049288;28;20166;-46
2023/04/05 03:50:02;;;;;;;14.30;5.78;;;0.90;99.90;;;;;;5047087;28;20033;-46
2023/04/05 03:52:28;;;;;;;11.63;5.68;;;0.90;99.90;;;;;;5043978;28;20070;-46
2023/04/05 03:54:53;;;;;;;7.28;4.50;;;0.70;99.90;;;;;;5072561;28;20469;-46
2023/04/05 03:57:19;;;;;;;9.30;4.60;;;0.70;99.90;;;;;;5041588;28;20033;-46
2023/04/05 03:59:45;;;;;;;11.48;5.13;;;0.70;99.90;;;;;;5042196;28;20025;-46
2023/04/05 04:02:10;;;;;;;6.63;4.50;;;0.70;99.90;;;;;;5044011;28;20505;-46
2023/04/05 04:04:36;;;;;;;7.88;4.47;;;0.70;99.90;;;;;;5048525;28;20025;-46
2023/04/05 04:07:02;;;;;;;10.95;5.32;;;0.60;99.90;;;;;;5048846;28;20486;-46
2023/04/05 04:09:28;;;;;;;12.48;5.20;;;0.50;99.90;;;;;;5047860;28;20098;-46
2023/04/05 04:11:55;;;;;;;11.02;4.85;;;0.50;99.90;;;;;;5049491;28;20382;-46
2023/04/05 04:14:22;;;;;;;12.98;4.82;;;0.50;99.90;;;;;;5048772;28;20017;-47
2023/04/05 04:16:48;;;;;;;9.95;5.68;;;0.40;99.90;;;;;;5048940;28;20367;-47
2023/04/05 04:19:13;;;;;;;13.20;6.10;;;0.40;99.90;;;;;;5049026;28;20090;-46
2023/04/05 04:21:39;;;;;;;10.20;5.22;;;0.40;99.90;;;;;;5049401;28;20502;-46
2023/04/05 04:24:05;;;;;;;10.15;6.05;;;0.40;99.90;;;;;;5049293;28;20083;-46
2023/04/05 04:26:36;;;;;;;11.60;4.88;;;0.50;99.90;;;;;;5048719;28;20482;-46
2023/04/05 04:29:05;;;;;;;14.35;6.38;;;0.50;99.90;;;;;;5048243;28;20103;-46
2023/04/05 04:31:32;;;;;;;13.18;5.80;;;0.40;99.90;;;;;;5047137;28;20116;-48
2023/04/05 04:34:01;;;;;;;12.80;5.90;;;0.50;99.90;;;;;;5048556;28;20449;-46
2023/04/05 04:36:34;;;;;;;11.25;5.10;;;0.40;99.90;;;;;;5048698;28;20501;-46
2023/04/05 04:39:04;;;;;;;12.27;6.53;;;0.40;99.90;;;;;;5047470;28;20032;-46
2023/04/05 04:41:32;;;;;;;10.57;5.88;;;0.40;99.90;;;;;;5048831;28;20025;-46
2023/04/05 04:44:01;;;;;;;15.93;5.90;;;0.40;99.90;;;;;;5048683;28;20039;-46
2023/04/05 04:46:29;;;;;;;9.00;5.20;;;0.40;99.90;;;;;;5048103;28;20029;-46
2023/04/05 04:48:56;;;;;;;13.82;5.70;;;0.40;99.90;;;;;;5048474;28;20080;-47
2023/04/05 04:51:22;;;;;;;16.35;5.75;;;0.40;99.90;;;;;;5048751;28;20021;-47
2023/04/05 04:53:47;;;;;;;12.77;5.30;;;0.40;99.90;;;;;;5049245;28;20477;-47
2023/04/05 04:56:13;;;;;;;11.45;5.63;;;0.40;99.90;;;;;;5049321;28;20029;-46
2023/04/05 04:58:38;;;;;;;16.00;5.85;;;0.30;99.90;;;;;;5048135;28;20029;-47
2023/04/05 05:01:08;;;;;;;10.15;6.00;;;0.30;99.90;;;;;;5048619;28;20424;-50
2023/04/05 05:03:36;;;;;;;12.50;5.40;;;0.20;99.90;;;;;;5047117;28;20020;-47
2023/04/05 05:06:01;;;;;;;13.60;5.82;;;0.30;99.90;;;;;;5045524;28;20377;-47
2023/04/05 05:08:27;;;;;;;12.35;6.28;;;0.20;99.90;;;;;;5047156;28;20096;-50
2023/04/05 05:10:53;;;;;;;13.85;6.55;;;0.20;99.90;;;;;;5048361;28;20033;-47
2023/04/05 05:13:18;;;;;;;13.18;5.90;;;0.20;99.90;;;;;;5048361;28;20020;-48
2023/04/05 05:15:44;;;;;;;11.82;5.60;;;0.20;99.90;;;;;;5047959;28;20471;-46
2023/04/05 05:18:11;;;;;;;14.10;6.00;;;0.30;99.90;;;;;;5047918;28;20167;-47
2023/04/05 05:20:36;;;;;;;9.25;6.15;;;0.30;99.90;;;;;;5047325;28;20102;-46
2023/04/05 05:23:04;;;;;;;15.07;5.85;;;0.30;99.90;;;;;;5048322;28;20067;-46
2023/04/05 05:25:30;;;;;;;11.35;5.82;;;0.30;99.90;;;;;;5047788;28;20827;-46
2023/04/05 05:27:55;;;;;;;8.07;5.07;;;0.30;99.90;;;;;;5045412;28;20104;-47
2023/04/05 05:30:21;;;;;;;12.02;5.20;;;0.30;99.90;;;;;;5048211;28;20124;-47
2023/04/05 05:32:47;;;;;;;10.95;5.55;;;0.30;99.90;;;;;;5048407;28;20025;-46
2023/04/05 05:35:12;;;;;;;9.90;5.55;;;0.30;99.90;;;;;;5048064;28;20021;-46
2023/04/05 05:37:38;;;;;;;14.10;6.05;;;0.30;99.90;;;;;;5047769;28;20032;-47
2023/04/05 05:40:04;;;;;;;26.83;13.60;;;0.30;99.90;;;;;;5046538;28;20033;-47
2023/04/05 05:42:33;;;;;;;36.05;17.35;;;0.30;99.90;;;;;;5046339;28;20120;-48
2023/04/05 05:45:04;;;;;;;24.90;12.52;;;0.40;99.90;;;;;;5046804;28;20433;-46
2023/04/05 05:47:29;;;;;;;28.88;11.73;;;0.40;99.90;;;;;;5040582;28;20095;-47
2023/04/05 05:49:55;;;;;;;18.88;8.25;;;0.40;99.90;;;;;;5041066;28;20025;-47
2023/04/05 05:52:21;;;;;;;12.93;7.50;;;0.50;99.90;;;;;;5039263;28;20091;-46
2023/04/05 05:54:46;;;;;;;10.40;6.30;;;0.50;99.90;;;;;;5041849;28;20021;-47
2023/04/05 05:57:12;;;;;;;11.30;5.80;;;0.60;99.90;;;;;;5044442;28;20413;-46
2023/04/05 05:59:38;;;;;;;10.70;5.50;;;0.60;99.90;;;;;;5043457;28;20045;-48
2023/04/05 06:02:04;;;;;;;11.60;5.40;;;0.70;99.90;;;;;;5041125;28;20018;-46
2023/04/05 06:04:30;;;;;;;12.07;5.47;;;0.70;99.90;;;;;;5043489;28;20064;-47
2023/04/05 06:06:56;;;;;;;9.45;5.40;;;0.80;99.90;;;;;;5048751;28;20037;-48
2023/04/05 06:09:22;;;;;;;9.55;4.82;;;0.90;99.90;;;;;;5045593;28;20496;-46
2023/04/05 06:11:51;;;;;;;8.95;5.00;;;1.00;99.90;;;;;;5045624;28;20017;-46
2023/04/05 06:14:16;;;;;;;9.43;5.22;;;1.00;99.90;;;;;;5042799;28;20022;-48
2023/04/05 06:16:42;;;;;;;11.70;5.03;;;1.10;99.90;;;;;;5049715;28;20474;-48
2023/04/05 06:19:07;;;;;;;10.52;5.15;;;1.10;99.90;;;;;;5043593;28;20044;-47
2023/04/05 06:21:33;;;;;;;11.13;4.70;;;1.20;99.90;;;;;;5051801;28;20036;-46
2023/04/05 06:23:58;;;;;;;7.43;4.75;;;1.20;99.90;;;;;;5050952;28;20029;-47
2023/04/05 06:26:27;;;;;;;10.23;5.65;;;1.30;99.90;;;;;;5050831;28;20021;-47
2023/04/05 06:28:53;;;;;;;22.67;9.05;;;1.40;99.90;;;;;;5049558;28;20112;-47
2023/04/05 06:31:26;;;;;;;19.45;10.10;;;1.40;99.90;;;;;;5051626;28;20100;-47
2023/04/05 06:33:52;;;;;;;17.75;8.60;;;1.50;99.90;;;;;;5051048;28;20028;-47
2023/04/05 06:36:18;;;;;;;15.93;7.95;;;1.60;99.90;;;;;;5049566;28;20141;-46
2023/04/05 06:38:43;;;;;;;16.48;6.43;;;1.60;99.90;;;;;;5051234;28;20017;-46
2023/04/05 06:41:09;;;;;;;12.63;7.28;;;1.70;99.90;;;;;;5051333;28;20017;-47
2023/04/05 06:43:34;;;;;;;10.57;6.15;;;1.70;99.90;;;;;;5050830;28;20033;-47
2023/04/05 06:46:00;;;;;;;9.07;5.13;;;1.80;99.90;;;;;;5050507;28;20036;-47
2023/04/05 06:48:28;;;;;;;10.57;5.00;;;1.90;99.90;;;;;;5049458;28;20033;-46
2023/04/05 06:51:00;;;;;;;8.07;4.55;;;1.90;99.90;;;;;;5051180;28;20021;-47
2023/04/05 06:53:27;;;;;;;8.27;4.20;;;2.00;99.90;;;;;;5051250;28;20027;-47
2023/04/05 06:55:57;;;;;;;9.43;4.28;;;2.10;99.90;;;;;;5049565;28;20112;-47
2023/04/05 06:58:23;;;;;;;7.85;3.72;;;2.20;99.90;;;;;;5050707;28;20094;-47
2023/04/05 07:00:49;;;;;;;5.85;3.53;;;2.40;99.90;;;;;;5049733;28;20411;-47
2023/04/05 07:03:15;;;;;;;7.47;3.83;;;2.40;99.90;;;;;;5051101;28;20031;-46
2023/04/05 07:05:48;;;;;;;8.48;4.40;;;2.50;99.90;;;;;;5050441;28;20025;-47
2023/04/05 07:08:13;;;;;;;4.88;3.35;;;2.70;99.90;;;;;;5047223;28;20045;-47
2023/04/05 07:10:40;;;;;;;5.22;3.53;;;2.80;99.90;;;;;;5050310;28;20110;-47
2023/04/05 07:13:05;;;;;;;10.20;4.53;;;2.90;99.90;;;;;;5049968;28;20032;-47
2023/04/05 07:15:31;;;;;;;6.53;4.20;;;3.10;99.90;;;;;;5050839;28;20021;-46
2023/04/05 07:17:56;;;;;;;8.13;3.78;;;3.20;99.90;;;;;;5049005;28;20044;-47
2023/04/05 07:20:22;;;;;;;7.65;4.82;;;3.30;99.90;;;;;;5050646;28;20063;-50
2023/04/05 07:22:47;;;;;;;8.73;4.10;;;3.40;99.90;;;;;;5058829;28;20096;-46
2023/04/05 07:25:13;;;;;;;6.35;3.63;;;3.50;99.90;;;;;;5050563;28;20045;-48
2023/04/05 07:27:38;;;;;;;8.90;4.38;;;3.60;99.90;;;;;;5049568;28;20036;-48
2023/04/05 07:30:05;;;;;;;10.80;4.35;;;3.70;99.90;;;;;;5050677;28;20107;-47
2023/04/05 07:32:30;;;;;;;7.60;4.07;;;4.00;99.90;;;;;;5050465;28;20025;-48
2023/04/05 07:34:56;;;;;;;6.57;3.50;;;4.30;99.90;;;;;;5050323;28;20133;-48
2023/04/05 07:37:21;;;;;;;5.32;3.42;;;4.70;99.90;;;;;;5050101;28;20021;-48
2023/04/05 07:39:47;;;;;;;5.90;3.40;;;4.90;99.90;;;;;;5050329;28;20052;-48
2023/04/05 07:42:12;;;;;;;5.32;3.97;;;5.00;99.90;;;;;;5050711;28;20021;-48
2023/04/05 07:44:38;;;;;;;10.32;4.47;;;5.10;99.90;;;;;;5049743;28;20030;-48
2023/04/05 07:47:03;;;;;;;5.45;3.45;;;5.10;99.90;;;;;;5049178;28;20029;-47
2023/04/05 07:49:29;;;;;;;6.53;3.13;;;5.10;99.90;;;;;;5050006;28;20032;-48
2023/04/05 07:51:58;;;;;;;8.00;3.17;;;5.20;99.90;;;;;;5050232;28;20021;-48
2023/04/05 07:54:23;;;;;;;5.40;2.88;;;5.40;99.90;;;;;;5048957;28;20431;-48
2023/04/05 07:56:50;;;;;;;4.57;2.53;;;5.70;98.60;;;;;;5048899;28;20037;-48
2023/04/05 07:59:15;;;;;;;5.70;3.58;;;6.30;97.70;;;;;;5049756;28;20037;-49
2023/04/05 08:01:41;;;;;;;5.75;3.40;;;6.90;94.20;;;;;;5048039;28;20178;-48
2023/04/05 08:04:06;;;;;;;5.75;3.22;;;7.60;94.40;;;;;;5048245;28;20021;-48
2023/04/05 08:06:32;;;;;;;6.43;3.40;;;8.50;90.40;;;;;;5049551;28;20036;-48
2023/04/05 08:08:57;;;;;;;6.57;3.88;;;9.40;89.40;;;;;;5045697;28;20466;-46
2023/04/05 08:11:23;;;;;;;7.43;3.35;;;9.90;87.40;;;;;;5048872;28;20227;-45
2023/04/05 08:13:49;;;;;;;5.50;2.92;;;10.30;79.10;;;;;;5049297;28;20033;-46
2023/04/05 08:16:14;;;;;;;7.78;3.78;;;10.40;79.50;;;;;;5048857;28;20029;-47
2023/04/05 08:18:40;;;;;;;7.07;3.70;;;10.60;80.80;;;;;;5048911;28;20036;-47
2023/04/05 08:21:05;;;;;;;7.82;3.60;;;10.90;77.60;;;;;;5048266;28;20029;-49
2023/04/05 08:23:31;;;;;;;7.18;3.22;;;11.10;76.20;;;;;;5049058;28;20033;-47
2023/04/05 08:25:57;;;;;;;6.32;3.40;;;11.10;75.30;;;;;;5048236;28;20049;-46
2023/04/05 08:28:22;;;;;;;7.45;3.45;;;10.90;72.30;;;;;;5047462;28;20478;-46
2023/04/05 08:30:53;;;;;;;8.18;4.03;;;10.70;75.00;;;;;;5047135;28;20439;-46
2023/04/05 08:33:19;;;;;;;4.72;2.85;;;10.40;72.20;;;;;;5041765;28;20029;-49
2023/04/05 08:35:45;;;;;;;12.15;3.20;;;10.20;73.50;;;;;;5041172;28;20493;-47
2023/04/05 08:38:11;;;;;;;7.20;3.40;;;11.00;71.60;;;;;;5040338;28;20060;-48
2023/04/05 08:40:44;;;;;;;6.78;3.20;;;11.50;68.20;;;;;;5043174;28;20021;-46
2023/04/05 08:43:33;;;;;;;9.18;3.30;;;11.90;68.00;;;;;;5040188;28;20021;-48
2023/04/05 08:46:00;;;;;;;4.78;3.65;;;11.80;68.50;;;;;;5042670;28;20028;-48
2023/04/05 08:48:30;;;;;;;6.38;3.65;;;11.30;70.50;;;;;;5045552;28;20084;-49
2023/04/05 08:50:55;;;;;;;9.63;3.40;;;11.00;68.80;;;;;;5045890;28;20028;-48
2023/04/05 08:53:21;;;;;;;6.40;3.50;;;10.60;70.30;;;;;;5041490;28;20022;-49
2023/04/05 08:55:54;;;;;;;5.30;3.40;;;10.30;71.80;;;;;;5042833;28;20104;-46
2023/04/05 08:58:21;;;;;;;8.18;3.65;;;9.90;72.70;;;;;;5042543;28;20293;-48
2023/04/05 09:00:47;;;;;;;7.28;3.92;;;9.70;71.50;;;;;;5045529;28;20387;-47
2023/04/05 09:03:16;;;;;;;8.95;3.95;;;9.50;71.40;;;;;;5037970;28;20013;-47
2023/04/05 09:05:45;;;;;;;7.05;3.45;;;9.40;73.90;;;;;;5045705;28;20151;-46
2023/04/05 09:08:12;;;;;;;5.43;3.80;;;9.30;73.90;;;;;;5040684;28;20080;-46
2023/04/05 09:10:39;;;;;;;7.75;3.15;;;9.30;73.40;;;;;;5044087;28;20091;-47
2023/04/05 09:13:05;;;;;;;7.20;3.10;;;10.10;70.20;;;;;;5045769;28;20028;-50
2023/04/05 09:15:30;;;;;;;6.10;2.78;;;10.60;67.10;;;;;;5046132;28;20021;-47
2023/04/05 09:17:56;;;;;;;7.80;3.28;;;10.70;68.30;;;;;;5046632;28;20051;-46
2023/04/05 09:20:22;;;;;;;4.50;3.55;;;10.10;66.20;;;;;;5046748;28;20092;-49
2023/04/05 09:22:48;;;;;;;4.50;3.03;;;10.30;68.60;;;;;;5041998;28;20021;-47
2023/04/05 09:25:37;;;;;;;6.20;3.03;;;11.80;68.60;;;;;;5044109;28;20504;-51
2023/04/05 09:28:04;;;;;;;13.43;7.43;;;12.80;62.60;;;;;;5042666;28;20031;-49
2023/04/05 09:30:29;;;;;;;7.72;5.40;;;13.20;63.80;;;;;;5040043;28;20036;-48
2023/04/05 09:32:56;;;;;;;7.13;3.78;;;13.30;64.20;;;;;;5044834;28;20025;-47
2023/04/05 09:35:24;;;;;;;6.75;3.60;;;13.30;63.60;;;;;;5041874;28;20024;-50
2023/04/05 09:37:54;;;;;;;5.88;3.17;;;12.80;61.60;;;;;;5043250;28;20036;-48
2023/04/05 09:40:20;;;;;;;7.63;3.60;;;12.50;61.00;;;;;;5042580;28;20021;-50
2023/04/05 09:42:46;;;;;;;6.63;4.10;;;12.70;61.90;;;;;;5045405;28;20056;-48
2023/04/05 09:45:13;;;;;;;6.95;3.17;;;12.20;58.00;;;;;;5047249;28;20454;-49
2023/04/05 09:47:40;;;;;;;5.13;2.83;;;11.80;58.90;;;;;;5049603;28;20025;-47
2023/04/05 09:50:18;;;;;;;7.75;3.00;;;11.40;60.00;;;;;;5041621;28;20020;-47
2023/04/05 09:52:45;;;;;;;4.40;2.97;;;11.20;64.00;;;;;;5048941;28;20509;-47
2023/04/05 09:55:10;;;;;;;4.55;2.75;;;10.80;64.40;;;;;;5044273;28;20021;-48
2023/04/05 09:57:37;;;;;;;5.22;2.92;;;10.60;63.90;;;;;;5050681;28;20433;-46
2023/04/05 10:00:05;;;;;;;3.65;2.55;;;10.40;64.10;;;;;;5051922;28;20024;-47
2023/04/05 10:02:38;;;;;;;5.32;2.67;;;10.30;60.40;;;;;;5051814;28;20028;-46
2023/04/05 10:05:12;;;;;;;4.05;2.45;;;11.90;59.20;;;;;;5051875;28;20029;-46
2023/04/05 10:07:38;;;;;;;5.72;2.75;;;13.80;58.00;;;;;;5048434;28;20115;-49
2023/04/05 10:10:04;;;;;;;6.50;3.22;;;14.60;57.50;;;;;;5050892;28;20032;-48
2023/04/05 10:12:32;;;;;;;5.97;3.30;;;14.50;58.30;;;;;;5051644;28;20041;-49
2023/04/05 10:14:58;;;;;;;6.78;3.13;;;13.80;57.80;;;;;;5051555;28;20047;-47
2023/04/05 10:17:28;;;;;;;7.75;3.13;;;12.90;58.30;;;;;;5049524;28;20474;-47
2023/04/05 10:19:57;;;;;;;10.48;3.35;;;12.30;60.70;;;;;;5066588;28;20096;-47
2023/04/05 10:22:30;;;;;;;6.97;3.45;;;11.50;64.00;;;;;;5051284;28;20029;-46
2023/04/05 10:25:12;;;;;;;6.72;3.05;;;11.00;64.70;;;;;;5051455;28;20131;-46
2023/04/05 10:27:46;;;;;;;6.03;3.00;;;10.80;64.10;;;;;;5050328;28;20013;-47
2023/04/05 10:30:12;;;;;;;5.07;3.53;;;10.60;65.70;;;;;;5048897;28;20021;-46
2023/04/05 10:32:46;;;;;;;6.10;3.10;;;10.50;65.80;;;;;;5049797;28;20020;-46
2023/04/05 10:35:33;;;;;;;5.75;3.75;;;11.90;67.50;;;;;;5048958;28;20553;-48
2023/04/05 10:38:16;;;;;;;8.50;3.80;;;14.30;61.60;;;;;;5049557;28;20202;-47
2023/04/05 10:40:47;;;;;;;5.75;3.75;;;13.30;59.30;;;;;;5053461;28;20029;-48
2023/04/05 10:43:15;;;;;;;;;;;13.60;58.00;;;;;;5053820;28;20660;-46
2023/04/05 10:45:43;;;;;;;6.97;3.63;;;14.10;60.20;;;;;;5050977;28;19912;-48
2023/04/05 10:48:20;;;;;;;7.85;3.33;;;13.80;58.90;;;;;;5046277;28;20491;-47
2023/04/05 10:50:47;;;;;;;4.53;2.78;;;14.50;59.70;;;;;;5050973;28;20096;-49
2023/04/05 10:53:14;;;;;;;5.50;2.90;;;16.10;58.20;;;;;;5050696;28;20017;-49
2023/04/05 10:55:40;;;;;;;6.28;2.95;;;17.60;55.90;;;;;;5048359;28;20017;-51
2023/04/05 10:58:06;;;;;;;5.40;2.80;;;19.00;48.30;;;;;;5049540;28;20040;-48
2023/04/05 11:00:32;;;;;;;4.97;3.05;;;18.40;47.60;;;;;;5048307;28;20017;-47
2023/04/05 11:02:58;;;;;;;4.63;3.03;;;19.30;48.30;;;;;;5050247;28;20032;-49
2023/04/05 11:05:35;;;;;;;4.38;2.90;;;20.20;45.10;;;;;;5050665;28;20025;-48
2023/04/05 11:08:08;;;;;;;5.85;3.20;;;21.30;44.40;;;;;;5048450;28;20021;-49
2023/04/05 11:10:36;;;;;;;4.65;2.90;;;20.80;42.50;;;;;;5050656;28;20009;-46
2023/04/05 11:13:03;;;;;;;5.70;3.25;;;21.70;43.80;;;;;;5050367;28;20485;-48
2023/04/05 11:15:33;;;;;;;4.28;3.10;;;21.50;43.30;;;;;;5050666;28;20009;-46
2023/04/05 11:18:02;;;;;;;3.97;3.22;;;21.50;40.40;;;;;;5050639;28;20172;-46
2023/04/05 11:20:40;;;;;;;6.60;3.35;;;20.90;41.50;;;;;;5050472;28;20028;-46
2023/04/05 11:23:06;;;;;;;6.10;2.80;;;20.90;39.80;;;;;;5050570;28;20024;-49
2023/04/05 11:25:37;;;;;;;3.95;2.47;;;20.20;43.70;;;;;;5050854;28;20406;-46
2023/04/05 11:28:04;;;;;;;5.38;2.85;;;19.80;45.70;;;;;;5049679;28;20112;-47
2023/04/05 11:30:50;;;;;;;5.18;2.38;;;20.70;44.10;;;;;;5050911;28;20325;-46
2023/04/05 11:33:45;;;;;;;3.42;2.45;;;20.30;42.80;;;;;;5049176;28;20555;-46
2023/04/05 11:36:11;;;;;;;5.07;3.33;;;18.60;43.20;;;;;;5050427;28;20402;-46
2023/04/05 11:38:39;;;;;;;5.38;2.78;;;17.70;44.20;;;;;;5048489;28;20025;-47
2023/04/05 11:41:16;;;;;;;4.68;3.20;;;17.10;45.20;;;;;;5049982;28;20013;-47
2023/04/05 11:43:43;;;;;;;5.13;3.10;;;15.80;45.20;;;;;;5049973;28;20055;-46
2023/04/05 11:46:09;;;;;;;4.50;2.72;;;15.80;48.20;;;;;;5049695;28;20043;-47
2023/04/05 11:48:35;;;;;;;7.40;3.35;;;16.00;48.50;;;;;;5049774;28;20021;-46
2023/04/05 11:51:08;;;;;;;4.47;3.05;;;16.10;45.50;;;;;;5049853;28;20363;-46
2023/04/05 11:53:34;;;;;;;8.25;2.88;;;16.30;49.50;;;;;;5048889;28;20047;-49
2023/04/05 11:56:11;;;;;;;3.97;2.97;;;18.10;47.80;;;;;;5049356;28;20024;-46
2023/04/05 11:58:37;;;;;;;3.75;2.78;;;19.10;46.00;;;;;;5049604;28;20021;-46
2023/04/05 12:01:06;;;;;;;6.85;2.88;;;19.20;43.70;;;;;;5058078;28;20020;-46
2023/04/05 12:03:32;;;;;;;4.85;2.95;;;19.00;44.50;;;;;;5048956;28;20021;-46
2023/04/05 12:06:00;;;;;;;4.97;3.15;;;18.00;44.30;;;;;;5049437;28;20028;-46
2023/04/05 12:08:58;;;;;;;5.88;2.97;;;17.50;44.10;;;;;;5049732;28;20036;-46
2023/04/05 12:11:25;;;;;;;7.90;3.22;;;16.70;47.70;;;;;;5037106;28;20060;-48
2023/04/05 12:14:00;;;;;;;4.85;3.17;;;15.90;48.30;;;;;;5049219;28;20013;-47
2023/04/05 12:16:25;;;;;;;6.97;3.00;;;15.20;51.10;;;;;;5049197;28;20092;-46
2023/04/05 12:18:55;;;;;;;5.63;2.88;;;14.50;50.80;;;;;;5049145;28;20108;-46
2023/04/05 12:21:21;;;;;;;5.47;3.20;;;13.90;51.00;;;;;;5054037;28;20525;-45
2023/04/05 12:23:47;;;;;;;6.15;3.22;;;13.70;51.10;;;;;;5050227;28;20031;-45
2023/04/05 12:26:13;;;;;;;6.28;4.32;;;13.30;51.00;;;;;;5047407;28;20021;-47
2023/04/05 12:28:52;;;;;;;5.13;2.88;;;13.00;52.80;;;;;;5049010;28;20028;-46
2023/04/05 12:31:40;;;;;;;5.78;3.50;;;12.80;53.20;;;;;;5049210;28;20024;-46
2023/04/05 12:34:07;;;;;;;5.45;2.92;;;12.60;54.90;;;;;;5048806;28;20045;-47
2023/04/05 12:36:32;;;;;;;7.80;3.65;;;12.30;53.10;;;;;;5041864;28;20025;-48
2023/04/05 12:38:59;;;;;;;6.80;3.33;;;12.10;53.10;;;;;;5042959;28;20111;-46
2023/04/05 12:41:31;;;;;;;6.07;3.80;;;12.60;55.30;;;;;;5041103;28;20521;-46
2023/04/05 12:44:00;;;;;;;10.23;3.83;;;12.80;51.30;;;;;;5041977;28;20028;-46
2023/04/05 12:46:47;;;;;;;7.30;3.22;;;12.80;52.80;;;;;;5070909;28;20029;-47
2023/04/05 12:49:17;;;;;;;4.63;3.38;;;12.90;54.30;;;;;;5047322;28;20494;-47
2023/04/05 12:51:44;;;;;;;7.10;3.33;;;12.70;54.00;;;;;;5047603;28;20020;-46
2023/04/05 12:54:19;;;;;;;6.32;3.00;;;12.20;52.40;;;;;;5046629;28;20070;-47